createdAt,value
2023-01-08T00:00:00.259Z,48.0
2023-01-08T00:01:10.232Z,48.0
2023-01-08T00:02:00.262Z,48.0
2023-01-08T00:03:00.348Z,47.0
2023-01-08T00:04:00.385Z,47.0
2023-01-08T00:05:00.239Z,47.0
2023-01-08T00:06:01.216Z,47.0
2023-01-08T00:07:00.250Z,47.0
2023-01-08T00:08:00.207Z,43.6
2023-01-08T00:09:00.360Z,43.6
2023-01-08T00:10:00.234Z,43.6
2023-01-08T00:11:00.287Z,43.6
2023-01-08T00:12:00.265Z,43.6
2023-01-08T00:13:00.236Z,50.1
2023-01-08T00:14:00.215Z,50.1
2023-01-08T00:15:00.218Z,50.1
2023-01-08T00:16:03.345Z,50.1
2023-01-08T00:17:00.551Z,50.1
2023-01-08T00:18:00.540Z,45.5
2023-01-08T00:19:00.284Z,45.5
2023-01-08T00:20:00.239Z,45.5
2023-01-08T00:21:00.981Z,45.5
2023-01-08T00:22:00.255Z,45.5
2023-01-08T00:23:00.215Z,45.2
2023-01-08T00:24:00.247Z,45.2
2023-01-08T00:25:00.232Z,45.2
2023-01-08T00:26:01.978Z,45.2
2023-01-08T00:27:00.248Z,45.2
2023-01-08T00:28:00.223Z,44.6
2023-01-08T00:29:00.288Z,44.6
2023-01-08T00:30:00.237Z,44.6
2023-01-08T00:31:03.814Z,44.6
2023-01-08T00:32:00.243Z,44.6
2023-01-08T00:33:00.406Z,47.8
2023-01-08T00:34:00.258Z,47.8
2023-01-08T00:35:00.263Z,47.8
2023-01-08T00:36:05.262Z,47.8
2023-01-08T00:37:00.227Z,47.8
2023-01-08T00:38:00.210Z,46.2
2023-01-08T00:39:00.227Z,46.2
2023-01-08T00:40:00.223Z,46.2
2023-01-08T00:41:00.516Z,46.2
2023-01-08T00:42:00.226Z,46.2
2023-01-08T00:43:00.691Z,42.9
2023-01-08T00:44:00.202Z,42.9
2023-01-08T00:45:00.210Z,42.9
2023-01-08T00:46:00.302Z,42.9
2023-01-08T00:47:00.224Z,42.9
2023-01-08T00:48:00.195Z,42.8
2023-01-08T00:49:00.254Z,42.8
2023-01-08T00:50:00.169Z,42.8
2023-01-08T00:51:01.189Z,42.8
2023-01-08T00:52:00.187Z,42.8
2023-01-08T00:53:00.283Z,45.7
2023-01-08T00:54:00.137Z,45.7
2023-01-08T00:55:00.131Z,45.7
2023-01-08T00:56:02.388Z,45.7
2023-01-08T00:57:00.123Z,45.7
2023-01-08T00:58:00.116Z,45.4
2023-01-08T00:59:00.130Z,45.4
2023-01-08T01:00:00.499Z,45.4
2023-01-08T01:01:00.479Z,45.4
2023-01-08T01:02:00.283Z,45.4
2023-01-08T01:03:00.172Z,44.2
2023-01-08T01:04:00.252Z,44.2
2023-01-08T01:05:00.156Z,44.2
2023-01-08T01:06:01.274Z,44.2
2023-01-08T01:07:00.119Z,44.2
2023-01-08T01:08:00.113Z,48.5
2023-01-08T01:09:00.109Z,48.5
2023-01-08T01:10:00.351Z,48.5
2023-01-08T01:11:00.158Z,48.5
2023-01-08T01:12:00.131Z,48.5
2023-01-08T01:13:00.075Z,51.1
2023-01-08T01:14:00.247Z,51.1
2023-01-08T01:15:00.132Z,51.1
2023-01-08T01:16:01.581Z,51.1
2023-01-08T01:17:00.287Z,51.1
2023-01-08T01:18:00.238Z,55.5
2023-01-08T01:19:00.246Z,55.5
2023-01-08T01:20:00.230Z,55.5
2023-01-08T01:21:00.259Z,55.5
2023-01-08T01:22:00.802Z,55.5
2023-01-08T01:23:00.266Z,55.5
2023-01-08T01:24:03.526Z,55.5
2023-01-08T01:25:00.438Z,55.5
2023-01-08T01:26:00.280Z,55.5
2023-01-08T01:27:00.309Z,55.5
2023-01-08T01:28:00.316Z,53.8
2023-01-08T01:29:00.327Z,53.8
2023-01-08T01:30:00.342Z,53.8
2023-01-08T01:31:00.731Z,53.8
2023-01-08T01:32:00.273Z,53.8
2023-01-08T01:33:00.361Z,51.6
2023-01-08T01:34:00.279Z,51.6
2023-01-08T01:35:01.923Z,51.6
2023-01-08T01:36:01.850Z,51.6
2023-01-08T01:37:00.212Z,51.6
2023-01-08T01:38:00.223Z,50.7
2023-01-08T01:39:00.260Z,50.7
2023-01-08T01:40:00.246Z,50.7
2023-01-08T01:41:00.389Z,50.7
2023-01-08T01:42:00.264Z,50.7
2023-01-08T01:43:00.202Z,49.2
2023-01-08T01:44:20.126Z,49.2
2023-01-08T01:45:02.009Z,49.2
2023-01-08T01:46:00.495Z,49.2
2023-01-08T01:47:04.702Z,53.4
2023-01-08T01:48:05.074Z,53.4
2023-01-08T01:49:04.236Z,53.4
2023-01-08T01:50:19.214Z,53.4
2023-01-08T01:51:00.311Z,53.4
2023-01-08T01:52:04.643Z,51.8
2023-01-08T01:53:11.150Z,51.8
2023-01-08T01:54:02.667Z,51.8
2023-01-08T01:55:02.507Z,51.8
2023-01-08T01:56:02.090Z,51.8
2023-01-08T01:57:00.491Z,51.8
2023-01-08T01:58:05.514Z,52.9
2023-01-08T01:59:00.607Z,52.9
2023-01-08T02:00:03.439Z,52.9
2023-01-08T02:01:04.001Z,52.9
2023-01-08T02:02:01.200Z,53.9
2023-01-08T02:03:01.000Z,53.9
2023-01-08T02:04:00.383Z,53.9
2023-01-08T02:05:01.207Z,53.9
2023-01-08T02:06:10.182Z,53.9
2023-01-08T02:07:11.818Z,52.6
2023-01-08T02:08:09.351Z,52.6
2023-01-08T02:09:03.773Z,52.6
2023-01-08T02:10:06.931Z,52.6
2023-01-08T02:11:11.989Z,52.6
2023-01-08T02:12:11.408Z,52.5
2023-01-08T02:13:16.291Z,52.5
2023-01-08T02:14:10.377Z,52.5
2023-01-08T02:15:08.231Z,52.5
2023-01-08T02:16:10.431Z,52.5
2023-01-08T02:17:05.581Z,53.6
2023-01-08T02:18:08.645Z,53.6
2023-01-08T02:19:12.886Z,53.6
2023-01-08T02:20:13.743Z,53.6
2023-01-08T02:21:03.595Z,53.6
2023-01-08T02:22:12.690Z,49.4
2023-01-08T02:23:10.436Z,49.4
2023-01-08T02:24:19.168Z,49.4
2023-01-08T02:25:08.101Z,49.4
2023-01-08T02:26:09.527Z,49.4
2023-01-08T02:27:04.067Z,51.9
2023-01-08T02:28:04.407Z,51.9
2023-01-08T02:29:14.585Z,51.9
2023-01-08T02:30:02.330Z,51.9
2023-01-08T02:31:00.404Z,51.9
2023-01-08T02:32:00.852Z,51.6
2023-01-08T02:33:00.245Z,51.6
2023-01-08T02:34:00.477Z,51.6
2023-01-08T02:35:00.248Z,51.6
2023-01-08T02:36:20.147Z,51.6
2023-01-08T02:37:00.815Z,47.7
2023-01-08T02:38:00.261Z,47.7
2023-01-08T02:39:10.473Z,47.7
2023-01-08T02:40:13.637Z,47.7
2023-01-08T02:41:06.898Z,47.7
2023-01-08T02:42:00.192Z,51.7
2023-01-08T02:43:11.268Z,51.7
2023-01-08T02:44:02.587Z,51.7
2023-01-08T02:45:12.182Z,51.7
2023-01-08T02:46:01.477Z,51.7
2023-01-08T02:47:05.284Z,49.2
2023-01-08T02:48:06.255Z,49.2
2023-01-08T02:49:06.200Z,49.2
2023-01-08T02:50:17.385Z,49.2
2023-01-08T02:51:06.251Z,49.2
2023-01-08T02:52:03.589Z,53.1
2023-01-08T02:53:08.668Z,53.1
2023-01-08T02:54:05.803Z,53.1
2023-01-08T02:55:02.389Z,53.1
2023-01-08T02:56:05.644Z,53.1
2023-01-08T02:57:09.068Z,50.7
2023-01-08T02:58:01.620Z,50.7
2023-01-08T02:59:03.097Z,50.7
2023-01-08T03:00:00.272Z,50.7
2023-01-08T03:01:03.961Z,50.7
2023-01-08T03:02:02.092Z,51.5
2023-01-08T03:03:08.242Z,51.5
2023-01-08T03:04:07.596Z,51.5
2023-01-08T03:05:10.948Z,51.5
2023-01-08T03:06:05.310Z,51.5
2023-01-08T03:07:01.552Z,52.2
2023-01-08T03:08:01.302Z,52.2
2023-01-08T03:09:00.550Z,52.2
2023-01-08T03:10:00.607Z,52.2
2023-01-08T03:11:04.867Z,52.2
2023-01-08T03:12:09.136Z,53.3
2023-01-08T03:13:05.479Z,53.3
2023-01-08T03:14:09.180Z,53.3
2023-01-08T03:15:06.550Z,53.3
2023-01-08T03:16:05.664Z,53.3
2023-01-08T03:17:07.427Z,53.5
2023-01-08T03:18:06.817Z,53.5
2023-01-08T03:19:08.621Z,53.5
2023-01-08T03:20:07.640Z,53.5
2023-01-08T03:21:02.652Z,53.5
2023-01-08T03:22:02.335Z,55.3
2023-01-08T03:23:03.284Z,55.3
2023-01-08T03:24:01.160Z,55.3
2023-01-08T03:25:02.567Z,55.3
2023-01-08T03:26:02.834Z,55.3
2023-01-08T03:27:04.955Z,58.1
2023-01-08T03:28:05.385Z,58.1
2023-01-08T03:29:01.663Z,58.1
2023-01-08T03:30:03.032Z,58.1
2023-01-08T03:31:01.735Z,58.1
2023-01-08T03:32:04.175Z,55.4
2023-01-08T03:33:01.585Z,55.4
2023-01-08T03:34:03.184Z,55.4
2023-01-08T03:35:04.360Z,55.4
2023-01-08T03:36:03.399Z,55.4
2023-01-08T03:37:03.428Z,57.3
2023-01-08T03:38:07.432Z,57.3
2023-01-08T03:39:11.798Z,57.3
2023-01-08T03:40:06.916Z,57.3
2023-01-08T03:41:05.845Z,57.3
2023-01-08T03:42:06.779Z,55.5
2023-01-08T03:43:00.293Z,55.5
2023-01-08T03:44:00.264Z,55.5
2023-01-08T03:45:01.012Z,55.5
2023-01-08T03:46:06.497Z,55.5
2023-01-08T03:47:02.139Z,54.6
2023-01-08T03:48:02.417Z,54.6
2023-01-08T03:49:01.328Z,54.6
2023-01-08T03:50:04.377Z,54.6
2023-01-08T03:51:00.414Z,54.6
2023-01-08T03:52:00.221Z,55.1
2023-01-08T03:53:00.989Z,55.1
2023-01-08T03:54:00.322Z,55.1
2023-01-08T03:55:00.243Z,55.1
2023-01-08T03:56:00.297Z,55.1
2023-01-08T03:57:00.785Z,50.6
2023-01-08T03:58:00.256Z,50.6
2023-01-08T03:59:00.211Z,50.6
2023-01-08T04:00:00.235Z,50.6
2023-01-08T04:01:00.279Z,50.6
2023-01-08T04:02:00.494Z,51.0
2023-01-08T04:03:00.259Z,51.0
2023-01-08T04:04:00.331Z,51.0
2023-01-08T04:05:00.247Z,51.0
2023-01-08T04:06:00.296Z,51.0
2023-01-08T04:07:00.229Z,51.3
2023-01-08T04:08:00.276Z,51.3
2023-01-08T04:09:00.273Z,51.3
2023-01-08T04:10:00.228Z,51.3
2023-01-08T04:11:00.190Z,51.3
2023-01-08T04:12:00.229Z,51.1
2023-01-08T04:13:00.346Z,51.1
2023-01-08T04:14:00.518Z,51.1
2023-01-08T04:15:00.336Z,51.1
2023-01-08T04:16:00.342Z,51.1
2023-01-08T04:17:00.210Z,49.7
2023-01-08T04:18:00.237Z,49.7
2023-01-08T04:19:00.263Z,49.7
2023-01-08T04:20:00.197Z,49.7
2023-01-08T04:21:00.205Z,49.7
2023-01-08T04:22:00.204Z,50.7
2023-01-08T04:23:00.194Z,50.7
2023-01-08T04:24:00.267Z,50.7
2023-01-08T04:25:00.308Z,50.7
2023-01-08T04:26:04.121Z,50.7
2023-01-08T04:27:00.231Z,50.5
2023-01-08T04:28:00.171Z,50.5
2023-01-08T04:29:02.385Z,50.5
2023-01-08T04:30:00.271Z,50.5
2023-01-08T04:31:05.591Z,50.5
2023-01-08T04:32:00.214Z,51.7
2023-01-08T04:33:00.239Z,51.7
2023-01-08T04:34:00.232Z,51.7
2023-01-08T04:35:00.210Z,51.7
2023-01-08T04:36:00.837Z,51.7
2023-01-08T04:37:00.260Z,51.1
2023-01-08T04:38:00.191Z,51.1
2023-01-08T04:39:00.210Z,51.1
2023-01-08T04:40:00.189Z,51.1
2023-01-08T04:41:02.704Z,51.1
2023-01-08T04:42:00.307Z,49.6
2023-01-08T04:43:00.261Z,49.6
2023-01-08T04:44:00.204Z,49.6
2023-01-08T04:45:00.211Z,49.6
2023-01-08T04:46:02.596Z,49.6
2023-01-08T04:47:00.332Z,48.2
2023-01-08T04:48:00.267Z,48.2
2023-01-08T04:49:00.258Z,48.2
2023-01-08T04:50:00.212Z,48.2
2023-01-08T04:51:01.385Z,48.2
2023-01-08T04:52:00.198Z,50.2
2023-01-08T04:53:00.201Z,50.2
2023-01-08T04:54:00.256Z,50.2
2023-01-08T04:55:00.401Z,50.2
2023-01-08T04:56:04.713Z,50.2
2023-01-08T04:57:00.247Z,47.2
2023-01-08T04:58:00.243Z,47.2
2023-01-08T04:59:00.214Z,47.2
2023-01-08T05:00:00.287Z,47.2
2023-01-08T05:01:00.398Z,47.2
2023-01-08T05:02:00.376Z,49.6
2023-01-08T05:03:00.603Z,49.6
2023-01-08T05:04:03.013Z,49.6
2023-01-08T05:05:00.298Z,49.6
2023-01-08T05:06:00.219Z,49.6
2023-01-08T05:07:00.306Z,47.9
2023-01-08T05:08:00.381Z,47.9
2023-01-08T05:09:00.287Z,47.9
2023-01-08T05:10:00.283Z,47.9
2023-01-08T05:11:01.385Z,47.9
2023-01-08T05:12:00.236Z,48.5
2023-01-08T05:13:00.547Z,48.5
2023-01-08T05:14:00.210Z,48.5
2023-01-08T05:15:00.265Z,48.5
2023-01-08T05:16:00.639Z,48.5
2023-01-08T05:17:00.233Z,48.1
2023-01-08T05:18:03.003Z,48.1
2023-01-08T05:19:00.209Z,48.1
2023-01-08T05:20:00.219Z,48.1
2023-01-08T05:21:01.379Z,48.1
2023-01-08T05:22:00.229Z,44.2
2023-01-08T05:23:00.908Z,44.2
2023-01-08T05:24:00.252Z,44.2
2023-01-08T05:25:00.232Z,44.2
2023-01-08T05:26:02.487Z,44.2
2023-01-08T05:27:00.250Z,45.5
2023-01-08T05:28:00.613Z,45.5
2023-01-08T05:29:00.512Z,45.5
2023-01-08T05:30:00.228Z,45.5
2023-01-08T05:31:00.285Z,45.5
2023-01-08T05:32:00.213Z,44.3
2023-01-08T05:33:00.248Z,44.3
2023-01-08T05:34:00.229Z,44.3
2023-01-08T05:35:00.259Z,44.3
2023-01-08T05:36:03.709Z,44.3
2023-01-08T05:37:00.228Z,48.5
2023-01-08T05:38:00.207Z,48.5
2023-01-08T05:39:00.253Z,48.5
2023-01-08T05:40:00.325Z,48.5
2023-01-08T05:41:00.271Z,48.5
2023-01-08T05:42:00.644Z,43.7
2023-01-08T05:43:00.657Z,43.7
2023-01-08T05:44:00.265Z,43.7
2023-01-08T05:45:00.722Z,43.7
2023-01-08T05:46:01.580Z,43.7
2023-01-08T05:47:00.339Z,48.9
2023-01-08T05:48:03.729Z,48.9
2023-01-08T05:49:00.202Z,48.9
2023-01-08T05:50:00.494Z,48.9
2023-01-08T05:51:00.578Z,48.9
2023-01-08T05:52:00.298Z,52.8
2023-01-08T05:53:00.540Z,52.8
2023-01-08T05:54:00.257Z,52.8
2023-01-08T05:55:00.355Z,52.8
2023-01-08T05:56:01.818Z,52.8
2023-01-08T05:57:00.303Z,49.0
2023-01-08T05:58:02.017Z,49.0
2023-01-08T05:59:00.241Z,49.0
2023-01-08T06:00:00.281Z,49.0
2023-01-08T06:01:02.499Z,49.0
2023-01-08T06:02:00.258Z,47.2
2023-01-08T06:03:00.569Z,47.2
2023-01-08T06:04:00.297Z,47.2
2023-01-08T06:05:00.266Z,47.2
2023-01-08T06:06:02.099Z,47.2
2023-01-08T06:07:00.272Z,46.6
2023-01-08T06:08:00.332Z,46.6
2023-01-08T06:09:00.337Z,46.6
2023-01-08T06:10:00.206Z,46.6
2023-01-08T06:11:02.672Z,46.6
2023-01-08T06:12:00.321Z,44.1
2023-01-08T06:13:00.213Z,44.1
2023-01-08T06:14:00.221Z,44.1
2023-01-08T06:15:00.326Z,44.1
2023-01-08T06:16:00.797Z,44.1
2023-01-08T06:17:00.259Z,44.6
2023-01-08T06:18:02.071Z,44.6
2023-01-08T06:19:00.242Z,44.6
2023-01-08T06:20:00.392Z,44.6
2023-01-08T06:21:01.297Z,44.6
2023-01-08T06:22:00.225Z,42.9
2023-01-08T06:23:00.273Z,42.9
2023-01-08T06:24:00.331Z,42.9
2023-01-08T06:25:00.677Z,42.9
2023-01-08T06:26:01.278Z,42.9
2023-01-08T06:27:00.220Z,48.0
2023-01-08T06:28:00.214Z,48.0
2023-01-08T06:29:00.338Z,48.0
2023-01-08T06:30:00.202Z,48.0
2023-01-08T06:31:01.574Z,48.0
2023-01-08T06:32:00.290Z,45.9
2023-01-08T06:33:00.779Z,45.9
2023-01-08T06:34:00.271Z,45.9
2023-01-08T06:35:00.235Z,45.9
2023-01-08T06:36:01.690Z,45.9
2023-01-08T06:37:00.340Z,43.5
2023-01-08T06:38:00.234Z,43.5
2023-01-08T06:39:00.288Z,43.5
2023-01-08T06:40:00.239Z,43.5
2023-01-08T06:41:05.289Z,43.5
2023-01-08T06:42:01.197Z,41.6
2023-01-08T06:43:01.296Z,41.6
2023-01-08T06:44:00.365Z,41.6
2023-01-08T06:45:00.206Z,41.6
2023-01-08T06:46:00.345Z,41.6
2023-01-08T06:47:00.371Z,42.1
2023-01-08T06:48:01.722Z,42.1
2023-01-08T06:49:00.205Z,42.1
2023-01-08T06:50:00.297Z,42.1
2023-01-08T06:51:00.940Z,42.1
2023-01-08T06:52:00.212Z,46.3
2023-01-08T06:53:00.503Z,46.3
2023-01-08T06:54:00.722Z,46.3
2023-01-08T06:55:00.217Z,46.3
2023-01-08T06:56:01.305Z,46.3
2023-01-08T06:57:00.238Z,44.7
2023-01-08T06:58:00.209Z,44.7
2023-01-08T06:59:00.402Z,44.7
2023-01-08T07:00:00.206Z,44.7
2023-01-08T07:01:00.241Z,44.7
2023-01-08T07:02:00.352Z,41.8
2023-01-08T07:03:00.372Z,41.8
2023-01-08T07:04:00.216Z,41.8
2023-01-08T07:05:00.243Z,41.8
2023-01-08T07:06:01.340Z,41.8
2023-01-08T07:07:00.261Z,43.8
2023-01-08T07:08:00.227Z,43.8
2023-01-08T07:09:00.243Z,43.8
2023-01-08T07:10:00.215Z,43.8
2023-01-08T07:11:02.221Z,43.8
2023-01-08T07:12:00.361Z,42.7
2023-01-08T07:13:00.222Z,42.7
2023-01-08T07:14:00.339Z,42.7
2023-01-08T07:15:00.642Z,42.7
2023-01-08T07:16:09.424Z,41.1
2023-01-08T07:17:00.272Z,41.1
2023-01-08T07:18:03.458Z,41.1
2023-01-08T07:19:00.205Z,41.1
2023-01-08T07:20:00.244Z,41.1
2023-01-08T07:21:00.610Z,41.1
2023-01-08T07:22:00.288Z,45.6
2023-01-08T07:23:02.351Z,45.6
2023-01-08T07:24:00.324Z,45.6
2023-01-08T07:25:00.392Z,45.6
2023-01-08T07:26:02.822Z,45.6
2023-01-08T07:27:00.219Z,42.2
2023-01-08T07:28:00.288Z,42.2
2023-01-08T07:29:00.292Z,42.2
2023-01-08T07:30:00.251Z,42.2
2023-01-08T07:31:03.452Z,42.5
2023-01-08T07:32:00.329Z,42.5
2023-01-08T07:33:00.959Z,42.5
2023-01-08T07:34:00.351Z,42.5
2023-01-08T07:35:00.254Z,42.5
2023-01-08T07:36:00.617Z,42.5
2023-01-08T07:37:00.384Z,37.4
2023-01-08T07:38:00.359Z,37.4
2023-01-08T07:39:00.444Z,37.4
2023-01-08T07:40:00.332Z,37.4
2023-01-08T07:41:00.352Z,39.4
2023-01-08T07:42:00.287Z,39.4
2023-01-08T07:43:02.235Z,39.4
2023-01-08T07:44:00.511Z,39.4
2023-01-08T07:45:00.276Z,39.4
2023-01-08T07:46:02.056Z,36.7
2023-01-08T07:47:00.435Z,36.7
2023-01-08T07:48:00.342Z,36.7
2023-01-08T07:49:00.492Z,36.7
2023-01-08T07:50:00.351Z,36.7
2023-01-08T07:51:01.071Z,37.4
2023-01-08T07:52:00.315Z,37.4
2023-01-08T07:53:01.265Z,37.4
2023-01-08T07:54:00.616Z,37.4
2023-01-08T07:55:00.300Z,37.4
2023-01-08T07:56:01.935Z,33.8
2023-01-08T07:57:00.328Z,33.8
2023-01-08T07:58:05.728Z,33.8
2023-01-08T07:59:00.343Z,33.8
2023-01-08T08:00:00.373Z,33.8
2023-01-08T08:01:00.848Z,33.9
2023-01-08T08:02:00.625Z,33.9
2023-01-08T08:03:03.605Z,33.9
2023-01-08T08:04:00.298Z,33.9
2023-01-08T08:05:00.419Z,33.9
2023-01-08T08:06:00.393Z,39.7
2023-01-08T08:07:00.340Z,39.7
2023-01-08T08:08:00.400Z,39.7
2023-01-08T08:09:00.373Z,39.7
2023-01-08T08:10:00.488Z,39.7
2023-01-08T08:11:00.469Z,35.5
2023-01-08T08:12:00.245Z,35.5
2023-01-08T08:13:00.286Z,35.5
2023-01-08T08:14:00.315Z,35.5
2023-01-08T08:15:00.239Z,35.5
2023-01-08T08:16:02.470Z,36.5
2023-01-08T08:17:00.370Z,36.5
2023-01-08T08:18:00.831Z,36.5
2023-01-08T08:19:00.517Z,36.5
2023-01-08T08:20:00.235Z,36.5
2023-01-08T08:21:00.213Z,31.6
2023-01-08T08:22:00.202Z,31.6
2023-01-08T08:23:01.141Z,31.6
2023-01-08T08:24:00.224Z,31.6
2023-01-08T08:25:00.249Z,31.6
2023-01-08T08:26:02.866Z,29.8
2023-01-08T08:27:00.205Z,29.8
2023-01-08T08:28:01.760Z,29.8
2023-01-08T08:29:00.213Z,29.8
2023-01-08T08:30:00.349Z,29.8
2023-01-08T08:31:00.304Z,30.0
2023-01-08T08:32:00.229Z,30.0
2023-01-08T08:33:02.337Z,30.0
2023-01-08T08:34:00.224Z,30.0
2023-01-08T08:35:00.372Z,30.0
2023-01-08T08:36:00.331Z,28.5
2023-01-08T08:37:00.339Z,28.5
2023-01-08T08:38:00.428Z,28.5
2023-01-08T08:39:02.055Z,28.5
2023-01-08T08:40:00.207Z,28.5
2023-01-08T08:41:00.211Z,27.3
2023-01-08T08:42:00.243Z,27.3
2023-01-08T08:43:02.384Z,27.3
2023-01-08T08:44:00.211Z,27.3
2023-01-08T08:45:00.218Z,27.3
2023-01-08T08:46:00.279Z,26.4
2023-01-08T08:47:00.286Z,26.4
2023-01-08T08:48:00.408Z,26.4
2023-01-08T08:49:00.579Z,26.4
2023-01-08T08:50:00.299Z,26.4
2023-01-08T08:51:00.206Z,26.0
2023-01-08T08:52:00.233Z,26.0
2023-01-08T08:53:01.670Z,26.0
2023-01-08T08:54:00.203Z,26.0
2023-01-08T08:55:00.258Z,26.0
2023-01-08T08:56:00.216Z,25.8
2023-01-08T08:57:00.212Z,25.8
2023-01-08T08:58:04.145Z,25.8
2023-01-08T08:59:00.206Z,25.8
2023-01-08T09:00:01.285Z,25.8
2023-01-08T09:01:02.867Z,26.2
2023-01-08T09:02:00.470Z,26.2
2023-01-08T09:03:00.419Z,26.2
2023-01-08T09:04:00.249Z,26.2
2023-01-08T09:05:00.318Z,26.2
2023-01-08T09:06:00.218Z,25.3
2023-01-08T09:07:00.239Z,25.3
2023-01-08T09:08:00.333Z,25.3
2023-01-08T09:09:00.224Z,25.3
2023-01-08T09:10:00.296Z,25.3
2023-01-08T09:11:01.254Z,22.7
2023-01-08T09:12:01.088Z,22.7
2023-01-08T09:13:00.219Z,22.7
2023-01-08T09:14:00.209Z,22.7
2023-01-08T09:15:00.250Z,22.7
2023-01-08T09:16:00.301Z,22.9
2023-01-08T09:17:00.263Z,22.9
2023-01-08T09:18:00.237Z,22.9
2023-01-08T09:19:00.223Z,22.9
2023-01-08T09:20:00.205Z,22.9
2023-01-08T09:21:03.600Z,21.8
2023-01-08T09:22:01.407Z,21.8
2023-01-08T09:23:00.898Z,21.8
2023-01-08T09:24:00.222Z,21.8
2023-01-08T09:25:00.253Z,21.8
2023-01-08T09:26:02.661Z,20.5
2023-01-08T09:27:00.432Z,20.5
2023-01-08T09:28:02.432Z,20.5
2023-01-08T09:29:00.305Z,20.5
2023-01-08T09:30:00.243Z,20.5
2023-01-08T09:31:01.725Z,21.5
2023-01-08T09:32:00.207Z,21.5
2023-01-08T09:33:02.887Z,21.5
2023-01-08T09:34:00.229Z,21.5
2023-01-08T09:35:00.238Z,21.5
2023-01-08T09:36:00.253Z,22.8
2023-01-08T09:37:00.532Z,22.8
2023-01-08T09:38:00.316Z,22.8
2023-01-08T09:39:00.397Z,22.8
2023-01-08T09:40:02.612Z,22.8
2023-01-08T09:41:05.807Z,20.8
2023-01-08T09:42:02.620Z,20.8
2023-01-08T09:43:02.915Z,20.8
2023-01-08T09:44:03.747Z,20.8
2023-01-08T09:45:01.552Z,20.8
2023-01-08T09:46:03.663Z,20.8
2023-01-08T09:47:01.508Z,20.8
2023-01-08T09:48:04.619Z,20.8
2023-01-08T09:49:05.631Z,20.8
2023-01-08T09:50:03.386Z,20.8
2023-01-08T09:51:00.757Z,20.9
2023-01-08T09:52:00.274Z,20.9
2023-01-08T09:53:00.489Z,20.9
2023-01-08T09:54:01.552Z,20.9
2023-01-08T09:55:00.518Z,20.9
2023-01-08T09:56:10.882Z,23.1
2023-01-08T09:57:00.310Z,23.1
2023-01-08T09:58:03.054Z,23.1
2023-01-08T09:59:03.130Z,23.1
2023-01-08T10:00:00.360Z,23.1
2023-01-08T10:01:02.462Z,22.2
2023-01-08T10:02:00.427Z,22.2
2023-01-08T10:03:00.366Z,22.2
2023-01-08T10:04:05.759Z,22.2
2023-01-08T10:05:00.286Z,22.2
2023-01-08T10:06:00.437Z,19.1
2023-01-08T10:07:10.389Z,19.1
2023-01-08T10:08:00.262Z,19.1
2023-01-08T10:09:00.333Z,19.1
2023-01-08T10:10:00.278Z,19.1
2023-01-08T10:11:00.252Z,18.2
2023-01-08T10:12:03.075Z,18.2
2023-01-08T10:13:00.422Z,18.2
2023-01-08T10:14:00.286Z,18.2
2023-01-08T10:15:03.728Z,18.2
2023-01-08T10:16:00.358Z,19.1
2023-01-08T10:17:11.420Z,19.1
2023-01-08T10:18:03.780Z,19.1
2023-01-08T10:19:02.296Z,19.1
2023-01-08T10:20:00.249Z,19.1
2023-01-08T10:21:00.227Z,18.6
2023-01-08T10:22:00.230Z,18.6
2023-01-08T10:23:09.782Z,18.6
2023-01-08T10:24:00.222Z,18.6
2023-01-08T10:25:10.117Z,18.6
2023-01-08T10:26:01.471Z,17.1
2023-01-08T10:27:14.963Z,17.1
2023-01-08T10:28:01.900Z,17.1
2023-01-08T10:29:12.805Z,17.1
2023-01-08T10:30:05.878Z,17.1
2023-01-08T10:31:06.689Z,16.6
2023-01-08T10:32:07.858Z,16.6
2023-01-08T10:33:04.838Z,16.6
2023-01-08T10:34:09.065Z,16.6
2023-01-08T10:35:05.317Z,16.6
2023-01-08T10:36:05.259Z,14.6
2023-01-08T10:37:00.235Z,14.6
2023-01-08T10:38:00.692Z,14.6
2023-01-08T10:39:01.868Z,14.6
2023-01-08T10:40:05.446Z,14.6
2023-01-08T10:41:03.628Z,15.5
2023-01-08T10:42:05.201Z,15.5
2023-01-08T10:43:13.305Z,15.5
2023-01-08T10:44:02.636Z,15.5
2023-01-08T10:45:06.900Z,15.5
2023-01-08T10:46:03.831Z,15.0
2023-01-08T10:47:00.372Z,15.0
2023-01-08T10:48:04.470Z,15.0
2023-01-08T10:49:02.684Z,15.0
2023-01-08T10:50:02.751Z,15.0
2023-01-08T10:51:07.020Z,14.4
2023-01-08T10:52:00.292Z,14.4
2023-01-08T10:53:02.967Z,14.4
2023-01-08T10:54:12.853Z,14.4
2023-01-08T10:55:11.232Z,14.4
2023-01-08T10:56:03.179Z,14.5
2023-01-08T10:57:02.464Z,14.5
2023-01-08T10:58:01.215Z,14.5
2023-01-08T10:59:00.230Z,14.5
2023-01-08T11:00:00.246Z,14.5
2023-01-08T11:01:11.994Z,13.7
2023-01-08T11:02:00.779Z,13.7
2023-01-08T11:03:04.725Z,13.7
2023-01-08T11:04:03.709Z,13.7
2023-01-08T11:05:01.847Z,13.7
2023-01-08T11:06:09.341Z,15.4
2023-01-08T11:07:03.029Z,15.4
2023-01-08T11:08:02.565Z,15.4
2023-01-08T11:09:03.500Z,15.4
2023-01-08T11:10:01.157Z,15.4
2023-01-08T11:11:01.209Z,13.9
2023-01-08T11:12:00.686Z,13.9
2023-01-08T11:13:02.859Z,13.9
2023-01-08T11:14:03.528Z,13.9
2023-01-08T11:15:00.864Z,13.9
2023-01-08T11:16:06.022Z,14.9
2023-01-08T11:17:02.175Z,14.9
2023-01-08T11:18:04.718Z,14.9
2023-01-08T11:19:00.433Z,14.9
2023-01-08T11:20:07.735Z,14.9
2023-01-08T11:21:17.329Z,13.6
2023-01-08T11:22:03.301Z,13.6
2023-01-08T11:23:11.258Z,13.6
2023-01-08T11:24:14.491Z,13.6
2023-01-08T11:25:00.310Z,13.6
2023-01-08T11:26:12.645Z,13.4
2023-01-08T11:27:10.362Z,13.4
2023-01-08T11:28:03.194Z,13.4
2023-01-08T11:29:13.749Z,13.4
2023-01-08T11:30:06.056Z,13.4
2023-01-08T11:31:16.707Z,13.3
2023-01-08T11:32:20.135Z,13.3
2023-01-08T11:33:05.001Z,13.3
2023-01-08T11:34:12.838Z,13.3
2023-01-08T11:35:08.823Z,13.3
2023-01-08T11:36:09.239Z,11.6
2023-01-08T11:37:08.926Z,11.6
2023-01-08T11:38:01.919Z,11.6
2023-01-08T11:39:01.124Z,11.6
2023-01-08T11:40:00.452Z,11.6
2023-01-08T11:41:13.881Z,11.8
2023-01-08T11:42:12.845Z,11.8
2023-01-08T11:43:11.180Z,11.8
2023-01-08T11:44:11.195Z,11.8
2023-01-08T11:45:11.171Z,11.8
2023-01-08T11:46:20.157Z,10.7
2023-01-08T11:47:07.633Z,10.7
2023-01-08T11:48:15.134Z,10.7
2023-01-08T11:49:11.206Z,10.7
2023-01-08T11:50:11.062Z,10.7
2023-01-08T11:51:20.117Z,11.2
2023-01-08T11:52:16.341Z,11.2
2023-01-08T11:53:13.006Z,11.2
2023-01-08T11:54:13.615Z,11.2
2023-01-08T11:55:17.533Z,11.2
2023-01-08T11:56:16.117Z,13.3
2023-01-08T11:57:16.759Z,13.3
2023-01-08T11:58:03.501Z,13.3
2023-01-08T11:59:17.661Z,13.3
2023-01-08T12:00:14.494Z,13.3
2023-01-08T12:01:10.880Z,11.6
2023-01-08T12:02:17.694Z,11.6
2023-01-08T12:03:02.769Z,11.6
2023-01-08T12:04:04.492Z,11.6
2023-01-08T12:05:10.197Z,11.6
2023-01-08T12:06:09.871Z,11.0
2023-01-08T12:07:18.011Z,11.0
2023-01-08T12:08:17.577Z,11.0
2023-01-08T12:09:12.952Z,11.0
2023-01-08T12:10:12.601Z,11.0
2023-01-08T12:11:10.162Z,11.9
2023-01-08T12:12:20.152Z,11.9
2023-01-08T12:13:10.177Z,11.9
2023-01-08T12:14:01.231Z,11.9
2023-01-08T12:15:11.746Z,11.9
2023-01-08T12:16:20.265Z,12.5
2023-01-08T12:17:17.469Z,12.5
2023-01-08T12:18:15.952Z,12.5
2023-01-08T12:19:06.017Z,12.5
2023-01-08T12:20:20.130Z,12.5
2023-01-08T12:21:12.046Z,12.3
2023-01-08T12:22:10.856Z,12.3
2023-01-08T12:23:18.965Z,12.3
2023-01-08T12:24:00.213Z,12.3
2023-01-08T12:25:10.189Z,12.3
2023-01-08T12:26:09.661Z,12.5
2023-01-08T12:27:20.461Z,12.5
2023-01-08T12:28:12.884Z,12.5
2023-01-08T12:29:06.367Z,12.5
2023-01-08T12:30:12.155Z,12.5
2023-01-08T12:31:20.151Z,12.9
2023-01-08T12:32:11.316Z,12.9
2023-01-08T12:33:04.292Z,12.9
2023-01-08T12:34:08.587Z,12.9
2023-01-08T12:35:14.026Z,12.9
2023-01-08T12:36:07.448Z,14.5
2023-01-08T12:37:12.023Z,14.5
2023-01-08T12:38:12.039Z,14.5
2023-01-08T12:39:07.412Z,14.5
2023-01-08T12:40:10.888Z,14.5
2023-01-08T12:41:05.077Z,13.6
2023-01-08T12:42:12.028Z,13.6
2023-01-08T12:43:12.835Z,13.6
2023-01-08T12:44:02.799Z,13.6
2023-01-08T12:45:04.666Z,13.6
2023-01-08T12:46:02.395Z,14.0
2023-01-08T12:47:03.414Z,14.0
2023-01-08T12:48:10.845Z,14.0
2023-01-08T12:49:02.477Z,14.0
2023-01-08T12:50:19.066Z,14.0
2023-01-08T12:51:11.397Z,14.6
2023-01-08T12:52:10.921Z,14.6
2023-01-08T12:53:06.583Z,14.6
2023-01-08T12:54:13.495Z,14.6
2023-01-08T12:55:20.117Z,14.6
2023-01-08T12:56:12.594Z,14.6
2023-01-08T12:57:15.458Z,14.6
2023-01-08T12:58:16.293Z,14.6
2023-01-08T12:59:10.181Z,14.6
2023-01-08T13:00:08.402Z,14.6
2023-01-08T13:01:17.716Z,14.4
2023-01-08T13:02:11.253Z,14.4
2023-01-08T13:03:03.506Z,14.4
2023-01-08T13:04:01.068Z,14.4
2023-01-08T13:05:20.150Z,17.5
2023-01-08T13:06:12.211Z,17.5
2023-01-08T13:07:03.176Z,17.5
2023-01-08T13:08:04.420Z,17.5
2023-01-08T13:09:01.628Z,17.5
2023-01-08T13:10:04.682Z,17.5
2023-01-08T13:11:01.217Z,15.8
2023-01-08T13:12:00.321Z,15.8
2023-01-08T13:13:01.589Z,15.8
2023-01-08T13:14:04.207Z,15.8
2023-01-08T13:15:00.385Z,15.8
2023-01-08T13:16:10.222Z,15.2
2023-01-08T13:17:03.883Z,15.2
2023-01-08T13:18:16.461Z,15.2